Time;durP1;ratioP1;P1;durP2;ratioP2;P2;SDS_P1;SDS_P2;PMS_P1;PMS_P2;Temp;Humidity;BMP_temperature;BMP_pressure;BME280_temperature;BME280_humidity;BME280_pressure;Samples;Min_cycle;Max_cycle;Signal;HPM_P1;HPM_P2
2023/04/17 00:01:54;;;;;;;5.43;2.30;;;;;;;13.04;95.59;64322.41;5071520;28;20193;-58
2023/04/17 00:04:20;;;;;;;2.97;2.63;;;;;;;13.04;95.87;64324.38;5070624;28;20217;-57
2023/04/17 00:06:46;;;;;;;3.95;2.40;;;;;;;13.03;95.46;64323.81;5053294;28;20207;-58
2023/04/17 00:09:12;;;;;;;2.80;2.13;;;;;;;13.03;96.04;64320.75;5071243;28;20205;-59
2023/04/17 00:11:38;;;;;;;4.03;2.27;;;;;;;13.21;94.71;64341.03;5071384;28;20184;-58
2023/04/17 00:14:04;;;;;;;4.28;2.50;;;;;;;13.22;94.49;64344.69;5071469;28;20209;-57
2023/04/17 00:16:30;;;;;;;3.00;2.60;;;;;;;13.21;94.30;64337.97;5071187;28;20189;-58
2023/04/17 00:18:55;;;;;;;4.97;2.47;;;;;;;13.32;94.33;64355.09;5053280;28;20208;-58
2023/04/17 00:21:21;;;;;;;3.57;2.23;;;;;;;13.14;95.10;64333.38;5071236;28;20578;-58
2023/04/17 00:23:46;;;;;;;4.40;2.83;;;;;;;13.18;94.66;64337.22;5071290;28;20597;-56
2023/04/17 00:26:12;;;;;;;4.65;2.90;;;;;;;13.18;95.12;64337.75;5071168;28;20652;-57
2023/04/17 00:28:37;;;;;;;2.87;2.40;;;;;;;13.02;95.11;64320.19;5071061;28;20577;-58
2023/04/17 00:31:04;;;;;;;4.28;2.25;;;;;;;13.23;94.89;64345.78;5071217;28;20205;-59
2023/04/17 00:33:32;;;;;;;2.75;2.25;;;;;;;13.16;95.12;64335.56;5071895;28;20258;-58
2023/04/17 00:35:57;;;;;;;3.45;2.88;;;;;;;13.22;95.07;64342.16;5071143;28;20564;-61
2023/04/17 00:38:23;;;;;;;4.50;2.38;;;;;;;13.29;95.12;64352.34;5071093;28;20299;-61
2023/04/17 00:40:50;;;;;;;4.25;2.78;;;;;;;13.25;95.32;64344.91;5070842;28;20185;-61
2023/04/17 00:43:15;;;;;;;5.13;2.83;;;;;;;13.16;95.42;64335.56;5070909;28;20228;-62
2023/04/17 00:45:41;;;;;;;3.92;2.85;;;;;;;13.14;95.91;64335.91;5070769;28;20173;-60
2023/04/17 00:48:08;;;;;;;3.50;2.57;;;;;;;13.09;95.67;64329.88;5075109;22;20225;-58
2023/04/17 00:50:34;;;;;;;2.60;2.40;;;;;;;13.27;95.47;64347.09;5050890;28;20694;-57
2023/04/17 00:53:00;;;;;;;5.10;2.33;;;;;;;13.15;95.74;64334.47;5050631;28;20229;-61
2023/04/17 00:55:27;;;;;;;2.37;2.13;;;;;;;13.02;96.36;64320.19;5050846;28;20205;-60
2023/04/17 00:57:55;;;;;;;2.97;2.60;;;;;;;12.95;96.63;64312.50;5050705;28;20210;-60
2023/04/17 01:00:20;;;;;;;5.47;2.30;;;;;;;12.93;96.56;64309.75;5050717;28;20196;-60
2023/04/17 01:02:46;;;;;;;3.03;2.00;;;;;;;12.91;96.90;64313.16;5050601;28;20186;-57
2023/04/17 01:05:12;;;;;;;2.97;2.37;;;;;;;13.00;96.66;64318.00;5050570;28;20715;-57
2023/04/17 01:07:38;;;;;;;3.70;2.40;;;;;;;13.03;96.59;64318.22;5050588;28;20272;-57
2023/04/17 01:10:05;;;;;;;5.13;3.10;;;;;;;12.91;97.69;64310.09;5050851;28;20267;-57
2023/04/17 01:12:31;;;;;;;2.97;2.70;;;;;;;13.00;96.80;64319.97;5050341;28;20189;-57
2023/04/17 01:14:56;;;;;;;3.60;2.80;;;;;;;12.95;96.94;64314.50;5050560;28;20220;-57
2023/04/17 01:17:24;;;;;;;5.27;2.83;;;;;;;12.77;96.90;64292.75;5050405;28;20200;-58
2023/04/17 01:19:52;;;;;;;3.70;2.93;;;;;;;12.75;95.27;64293.09;5075572;22;20221;-57
2023/04/17 01:22:19;;;;;;;6.67;3.40;;;;;;;12.54;97.12;64270.59;5070405;28;20655;-57
2023/04/17 01:24:45;;;;;;;4.77;3.57;;;;;;;12.43;97.81;64256.00;5070142;28;20239;-57
2023/04/17 01:27:12;;;;;;;5.57;3.67;;;;;;;12.34;97.94;64245.59;5070225;28;20207;-58
2023/04/17 01:29:45;;;;;;;3.80;3.40;;;;;;;12.21;99.46;64234.41;5070137;28;20208;-58
2023/04/17 01:32:10;;;;;;;5.37;3.60;;;;;;;12.32;99.48;64243.41;5070220;28;20192;-57
2023/04/17 01:34:36;;;;;;;7.20;4.43;;;;;;;12.24;99.05;64234.63;5070252;28;20628;-57
2023/04/17 01:37:01;;;;;;;5.27;4.27;;;;;;;12.31;98.01;64242.31;5070176;28;20548;-56
2023/04/17 01:39:34;;;;;;;6.33;4.63;;;;;;;12.41;95.38;64253.81;5052165;28;20216;-58
2023/04/17 01:41:59;;;;;;;7.70;4.90;;;;;;;12.35;95.07;64244.72;5070166;28;20215;-57
2023/04/17 01:44:25;;;;;;;6.77;3.80;;;;;;;12.47;93.89;64259.84;5070095;28;20633;-58
2023/04/17 01:46:50;;;;;;;7.63;4.03;;;;;;;12.48;92.76;64263.47;5070225;28;20210;-57
2023/04/17 01:49:16;;;;;;;6.37;3.73;;;;;;;12.44;92.26;64254.03;5069812;28;20212;-61
2023/04/17 01:51:41;;;;;;;5.17;4.00;;;;;;;12.34;93.35;64245.59;5069936;28;20715;-61
2023/04/17 01:54:07;;;;;;;4.30;3.43;;;;;;;12.19;91.17;64232.22;5069577;28;20204;-60
2023/04/17 01:56:32;;;;;;;7.10;3.77;;;;;;;12.35;91.82;64246.69;5069865;28;20381;-60
2023/04/17 01:58:58;;;;;;;8.10;3.80;;;;;;;12.45;91.62;64255.13;5069880;28;20292;-61
2023/04/17 02:01:23;;;;;;;9.27;4.17;;;;;;;12.47;91.43;64260.41;5069891;28;20270;-62
2023/04/17 02:03:49;;;;;;;8.87;4.20;;;;;;;12.43;92.45;64258.53;5070100;28;20204;-57
2023/04/17 02:06:15;;;;;;;10.67;4.10;;;;;;;12.43;92.32;64255.47;5069859;28;20173;-58
2023/04/17 02:08:40;;;;;;;5.90;4.27;;;;;;;12.46;92.95;64261.81;5069738;28;20216;-58
2023/04/17 02:11:05;;;;;;;5.53;4.27;;;;;;;12.49;91.17;64262.59;5069844;28;20208;-60
2023/04/17 02:13:31;;;;;;;5.77;3.93;;;;;;;12.47;91.59;64262.38;5070034;28;20212;-61
2023/04/17 02:15:56;;;;;;;9.93;4.73;;;;;;;12.48;91.79;64260.94;5069859;28;20263;-62
2023/04/17 02:18:22;;;;;;;6.23;4.67;;;;;;;12.40;92.53;64254.72;5069854;28;20690;-61
2023/04/17 02:20:47;;;;;;;9.00;4.40;;;;;;;12.41;94.25;64255.78;5069547;28;20180;-61
2023/04/17 02:23:13;;;;;;;9.57;4.77;;;;;;;12.37;93.49;64249.44;5069626;28;20216;-57
2023/04/17 02:25:38;;;;;;;8.13;4.67;;;;;;;12.41;93.56;64253.81;5051479;28;20715;-58
2023/04/17 02:28:05;;;;;;;10.27;4.33;;;;;;;12.44;93.92;64256.56;5070759;28;20236;-60
2023/04/17 02:30:31;;;;;;;10.17;4.93;;;;;;;12.51;92.72;64267.31;5073028;28;20359;-58
2023/04/17 02:32:57;;;;;;;5.00;4.10;;;;;;;12.57;92.40;64270.81;5072759;28;20248;-58
2023/04/17 02:35:27;;;;;;;9.10;4.77;;;;;;;12.61;92.76;64278.28;5072680;28;20185;-57
2023/04/17 02:37:53;;;;;;;8.13;4.20;;;;;;;12.73;94.10;64290.34;5072842;28;20205;-58
2023/04/17 02:40:19;;;;;;;9.57;4.50;;;;;;;12.65;95.02;64279.59;5072648;28;20685;-57
2023/04/17 02:42:44;;;;;;;14.17;4.90;;;;;;;12.51;96.95;64264.78;5072664;28;20199;-59
2023/04/17 02:45:10;;;;;;;7.43;6.03;;;;;;;12.61;97.48;64275.19;5072755;28;20227;-58
2023/04/17 02:47:36;;;;;;;7.77;5.30;;;;;;;12.49;98.50;64262.03;5072627;28;20192;-57
2023/04/17 02:50:02;;;;;;;9.77;5.70;;;;;;;12.36;100.00;64248.31;5072595;28;20211;-58
2023/04/17 02:52:29;;;;;;;7.70;5.77;;;;;;;12.26;100.00;64239.88;5072489;28;20197;-56
2023/04/17 02:54:55;;;;;;;8.93;5.77;;;;;;;12.16;100.00;64223.34;5072641;28;20215;-59
2023/04/17 02:57:22;;;;;;;10.00;5.60;;;;;;;12.15;100.00;64224.75;5072646;28;20580;-61
2023/04/17 02:59:48;;;;;;;7.37;5.63;;;;;;;12.29;100.00;64242.63;5072567;28;20728;-60
2023/04/17 03:02:13;;;;;;;10.87;6.17;;;;;;;12.20;100.00;64232.78;5072546;28;20220;-60
2023/04/17 03:04:39;;;;;;;10.73;6.20;;;;;;;12.08;100.00;64217.09;5072468;28;20292;-60
2023/04/17 03:07:05;;;;;;;7.03;5.27;;;;;;;12.13;100.00;64222.56;5072394;28;20184;-59
2023/04/17 03:09:32;;;;;;;8.37;5.30;;;;;;;12.09;100.00;64220.72;5072522;28;20204;-63
2023/04/17 03:11:58;;;;;;;8.40;5.17;;;;;;;11.93;100.00;64203.72;5072453;28;20172;-62
2023/04/17 03:14:24;;;;;;;7.50;5.60;;;;;;;11.89;100.00;64196.81;5072373;28;20213;-61
2023/04/17 03:16:49;;;;;;;11.53;5.87;;;;;;;11.92;100.00;64200.09;5072492;28;20169;-61
2023/04/17 03:19:14;;;;;;;6.47;5.17;;;;;;;11.97;100.00;64207.56;5072396;28;20244;-60
2023/04/17 03:21:40;;;;;;;6.97;4.93;;;;;;;11.96;100.00;64207.00;5072276;28;20181;-61
2023/04/17 03:24:05;;;;;;;7.37;5.50;;;;;;;11.98;100.00;64208.66;5072463;28;20240;-57
2023/04/17 03:26:31;;;;;;;11.83;5.63;;;;;;;11.77;100.00;64181.69;5072336;28;20187;-59
2023/04/17 03:28:56;;;;;;;9.33;4.83;;;;;;;11.74;100.00;64180.91;5072441;28;20252;-60
2023/04/17 03:31:22;;;;;;;8.97;5.57;;;;;;;11.78;100.00;64187.28;5072071;28;20205;-59
2023/04/17 03:33:48;;;;;;;8.37;5.63;;;;;;;11.78;100.00;64184.75;5072154;28;20313;-58
2023/04/17 03:36:14;;;;;;;8.10;5.07;;;;;;;11.85;100.00;64192.44;5071915;28;20247;-58
2023/04/17 03:38:39;;;;;;;10.97;5.27;;;;;;;11.77;100.00;64184.22;5071443;28;20209;-60
2023/04/17 03:41:05;;;;;;;8.13;5.20;;;;;;;11.74;100.00;64182.88;5071238;28;20215;-59
2023/04/17 03:43:31;;;;;;;7.90;5.20;;;;;;;11.61;100.00;64164.13;5053875;28;20223;-60
2023/04/17 03:45:56;;;;;;;8.57;4.77;;;;;;;11.64;100.00;64174.97;5071675;28;20646;-59
2023/04/17 03:48:22;;;;;;;7.13;4.90;;;;;;;11.58;100.00;64163.38;5071865;28;20293;-57
2023/04/17 03:50:47;;;;;;;7.70;4.80;;;;;;;11.65;100.00;64173.00;5071568;28;20208;-58
2023/04/17 03:53:13;;;;;;;12.07;5.13;;;;;;;11.60;100.00;64165.56;5071725;28;20295;-57
2023/04/17 03:55:38;;;;;;;8.13;4.60;;;;;;;11.68;100.00;64174.34;5071531;28;20216;-62
2023/04/17 03:58:03;;;;;;;10.40;5.50;;;;;;;11.54;100.00;64156.47;5071607;28;20220;-60
2023/04/17 04:00:30;;;;;;;5.97;4.40;;;;;;;11.59;100.00;64164.47;5071534;28;20552;-60
2023/04/17 04:02:56;;;;;;;10.47;4.63;;;;;;;11.66;100.00;64174.69;5071603;28;20236;-58
2023/04/17 04:05:21;;;;;;;7.93;3.97;;;;;;;11.89;99.28;64196.81;5071613;28;20216;-57
2023/04/17 04:07:46;;;;;;;6.17;3.90;;;;;;;11.99;98.19;64207.22;5071338;28;20193;-57
2023/04/17 04:10:12;;;;;;;6.40;3.67;;;;;;;12.03;97.42;64209.06;5071427;28;20283;-58
2023/04/17 04:12:37;;;;;;;5.50;4.00;;;;;;;12.18;96.20;64225.53;5071530;28;20326;-59
2023/04/17 04:15:03;;;;;;;11.53;4.20;;;;;;;12.31;95.70;64245.38;5071403;28;20224;-58
2023/04/17 04:17:28;;;;;;;6.57;3.87;;;;;;;12.28;94.99;64237.03;5071500;28;20184;-57
2023/04/17 04:19:54;;;;;;;7.80;4.10;;;;;;;12.32;94.93;64245.94;5071127;28;20307;-58
2023/04/17 04:22:20;;;;;;;7.90;3.60;;;;;;;12.31;94.17;64245.38;5071247;28;20561;-58
2023/04/17 04:24:46;;;;;;;8.57;3.77;;;;;;;12.25;94.49;64235.72;5071177;28;20275;-61
2023/04/17 04:27:11;;;;;;;5.13;3.93;;;;;;;12.29;94.08;64240.09;5070970;28;20242;-61
2023/04/17 04:29:37;;;;;;;5.30;3.70;;;;;;;12.58;93.01;64272.44;5071044;28;20212;-59
2023/04/17 04:32:03;;;;;;;9.93;4.37;;;;;;;12.70;91.71;64287.59;5071515;28;20349;-59
2023/04/17 04:34:29;;;;;;;6.90;3.80;;;;;;;12.72;91.63;64287.28;5071294;28;20219;-57
2023/04/17 04:36:57;;;;;;;8.43;3.90;;;;;;;12.73;91.21;64288.34;5052992;28;20203;-59
2023/04/17 04:39:23;;;;;;;9.33;4.67;;;;;;;12.65;92.29;64279.59;5070736;28;20291;-58
2023/04/17 04:41:50;;;;;;;8.73;4.23;;;;;;;12.76;91.94;64294.19;5070880;28;20203;-58
2023/04/17 04:44:19;;;;;;;9.77;4.50;;;;;;;12.65;93.28;64282.13;5071034;28;20201;-59
2023/04/17 04:46:45;;;;;;;7.93;3.93;;;;;;;12.68;93.53;64283.41;5070873;28;20180;-58
2023/04/17 04:49:11;;;;;;;4.53;3.80;;;;;;;12.70;93.49;64284.53;5070801;28;20259;-57
2023/04/17 04:51:37;;;;;;;6.53;4.50;;;;;;;12.60;94.55;64274.13;5070366;28;20207;-57
2023/04/17 04:54:03;;;;;;;11.13;4.47;;;;;;;12.62;94.31;64276.31;5070640;28;20212;-61
2023/04/17 04:56:28;;;;;;;11.23;5.00;;;;;;;12.56;95.41;64270.25;5070830;28;20565;-60
2023/04/17 04:58:55;;;;;;;6.80;4.50;;;;;;;12.40;96.35;64254.72;5070901;28;20717;-61
2023/04/17 05:01:20;;;;;;;12.20;4.97;;;;;;;12.32;97.23;64246.47;5070700;28;20173;-60
2023/04/17 05:03:46;;;;;;;5.97;4.10;;;;;;;12.26;97.50;64239.34;5070808;28;20689;-60
2023/04/17 05:06:15;;;;;;;6.20;4.30;;;;;;;12.24;97.29;64235.16;5070786;28;20310;-61
2023/04/17 05:08:41;;;;;;;6.57;4.37;;;;;;;12.20;98.09;64230.25;5070744;28;20298;-58
2023/04/17 05:11:07;;;;;;;11.47;5.20;;;;;;;12.17;98.85;64226.94;5070458;28;20243;-58
2023/04/17 05:13:32;;;;;;;13.73;5.50;;;;;;;12.14;99.21;64223.66;5070816;28;20346;-58
2023/04/17 05:15:58;;;;;;;8.53;4.20;;;;;;;12.39;98.05;64251.06;5070606;28;20672;-59
2023/04/17 05:18:23;;;;;;;8.27;5.27;;;;;;;12.35;97.94;64247.25;5070532;28;20229;-58
2023/04/17 05:20:50;;;;;;;8.30;4.27;;;;;;;12.16;98.86;64225.88;5070388;28;20193;-57
2023/04/17 05:23:15;;;;;;;6.97;4.53;;;;;;;12.32;96.83;64243.41;5070508;28;20248;-58
2023/04/17 05:25:41;;;;;;;9.57;4.53;;;;;;;12.18;97.58;64230.59;5070294;28;20254;-57
2023/04/17 05:28:06;;;;;;;5.90;4.50;;;;;;;12.10;97.62;64222.34;5070428;28;20663;-57
2023/04/17 05:30:32;;;;;;;10.93;4.33;;;;;;;12.24;97.35;64234.63;5052244;28;20649;-58
2023/04/17 05:32:59;;;;;;;6.23;4.23;;;;;;;12.20;98.05;64232.78;5070438;28;20273;-66
2023/04/17 05:35:26;;;;;;;7.10;4.53;;;;;;;12.20;97.61;64230.25;5070359;28;20203;-59
2023/04/17 05:37:52;;;;;;;13.23;4.60;;;;;;;12.26;96.24;64239.34;5070350;28;20646;-57
2023/04/17 05:40:17;;;;;;;8.10;3.90;;;;;;;12.24;96.65;64237.16;5070307;28;20193;-60
2023/04/17 05:42:43;;;;;;;11.23;4.53;;;;;;;12.27;96.26;64240.44;5070226;28;20200;-59
2023/04/17 05:45:12;;;;;;;7.50;3.93;;;;;;;12.31;96.52;64242.31;5070114;28;20189;-59
2023/04/17 05:47:37;;;;;;;8.03;4.13;;;;;;;12.23;96.89;64236.59;5070169;28;20272;-60
2023/04/17 05:50:03;;;;;;;7.00;4.00;;;;;;;12.30;98.09;64243.75;5052003;28;20331;-60
2023/04/17 05:52:29;;;;;;;6.67;4.23;;;;;;;12.28;98.27;64239.56;5069953;28;20280;-60
2023/04/17 05:54:55;;;;;;;7.57;4.73;;;;;;;12.33;97.52;64241.97;5069854;28;20296;-57
2023/04/17 05:57:21;;;;;;;6.50;4.03;;;;;;;12.22;98.03;64232.97;5069910;28;20204;-57
2023/04/17 05:59:46;;;;;;;5.33;4.00;;;;;;;12.20;99.18;64228.25;5070095;28;20209;-59
2023/04/17 06:02:11;;;;;;;6.40;4.00;;;;;;;12.39;97.70;64251.06;5070018;28;20177;-58
2023/04/17 06:04:37;;;;;;;6.80;3.83;;;;;;;13.13;100.00;64329.19;5073265;28;20220;-57
2023/04/17 06:07:04;;;;;;;7.93;3.50;;;;;;;13.85;100.00;64410.22;5073415;28;20593;-58
2023/04/17 06:09:30;;;;;;;7.63;3.90;;;;;;;14.09;100.00;64436.56;5073561;28;20284;-58
2023/04/17 06:11:56;;;;;;;8.20;4.05;;;;;;;14.66;100.00;64496.69;5073434;28;20207;-58
2023/04/17 06:14:21;;;;;;;5.85;3.53;;;;;;;14.91;100.00;64526.69;5055223;28;20650;-60
2023/04/17 06:16:47;;;;;;;8.43;3.63;;;;;;;15.17;96.91;64554.19;5073163;28;20675;-60
2023/04/17 06:19:13;;;;;;;6.65;3.97;;;;;;;15.51;86.96;64592.16;5055109;28;20212;-61
2023/04/17 06:21:39;;;;;;;8.80;4.20;;;;;;;15.49;87.71;64589.97;5055228;28;20183;-58
2023/04/17 06:24:04;;;;;;;8.13;3.83;;;;;;;15.42;87.63;64582.25;5073398;28;20208;-58
2023/04/17 06:26:30;;;;;;;9.77;3.80;;;;;;;15.13;79.78;64550.31;5073317;28;20597;-58
2023/04/17 06:28:55;;;;;;;5.63;3.20;;;;;;;14.87;91.77;64522.28;5073398;28;20266;-57
2023/04/17 06:31:20;;;;;;;6.72;3.80;;;;;;;14.73;82.58;64503.81;5054790;28;20695;-58
2023/04/17 06:33:48;;;;;;;9.57;3.83;;;;;;;14.37;81.94;64469.88;5073001;28;20220;-57
2023/04/17 06:36:14;;;;;;;5.88;3.88;;;;;;;13.94;84.25;64422.63;5073025;28;20268;-59
2023/04/17 06:38:40;;;;;;;6.35;3.83;;;;;;;13.65;86.03;64390.78;5072761;28;20243;-58
2023/04/17 06:41:05;;;;;;;9.02;3.95;;;;;;;13.49;88.33;64371.78;5072657;28;20250;-59
2023/04/17 06:43:31;;;;;;;6.82;3.92;;;;;;;13.34;88.12;64354.75;5072544;28;20213;-58
2023/04/17 06:45:56;;;;;;;9.73;3.72;;;;;;;13.46;87.62;64368.50;5072608;28;20181;-58
2023/04/17 06:48:22;;;;;;;4.80;3.80;;;;;;;13.45;88.43;64369.38;5072720;28;20296;-57
2023/04/17 06:50:48;;;;;;;11.07;4.53;;;;;;;13.34;89.99;64355.31;5072495;28;20577;-58
2023/04/17 06:53:13;;;;;;;7.00;4.23;;;;;;;13.14;90.71;64333.38;5072772;28;20221;-57
2023/04/17 06:55:39;;;;;;;8.53;4.77;;;;;;;13.14;91.08;64335.91;5072412;28;20192;-59
2023/04/17 06:58:07;;;;;;;6.77;4.73;;;;;;;13.18;92.57;64337.75;5072390;28;20212;-59
2023/04/17 07:00:32;;;;;;;9.60;4.27;;;;;;;13.32;92.24;64353.13;5072527;28;20272;-58
2023/04/17 07:02:58;;;;;;;6.90;4.90;;;;;;;13.48;91.98;64372.66;5072318;28;20240;-59
2023/04/17 07:05:23;;;;;;;11.83;5.37;;;;;;;13.43;91.19;64362.66;5072496;28;20601;-63
2023/04/17 07:07:48;;;;;;;9.03;4.93;;;;;;;13.63;90.71;64383.53;5072549;28;20757;-62
2023/04/17 07:10:14;;;;;;;9.83;5.80;;;;;;;13.57;90.59;64382.56;5072321;28;20664;-61
2023/04/17 07:12:40;;;;;;;7.27;5.17;;;;;;;13.41;91.29;64363.00;5072434;28;20185;-62
2023/04/17 07:15:07;;;;;;;11.20;5.30;;;;;;;13.46;90.83;64367.94;5072099;28;20220;-62
2023/04/17 07:17:32;;;;;;;12.53;5.83;;;;;;;13.60;91.88;64382.75;5072305;28;20265;-61
2023/04/17 07:19:58;;;;;;;10.47;5.47;;;;;;;13.70;91.65;64393.72;5072187;28;20663;-61
2023/04/17 07:22:23;;;;;;;10.48;5.18;;;;;;;13.76;89.08;64403.41;5072114;28;20192;-61
2023/04/17 07:24:48;;;;;;;9.10;5.50;;;;;;;13.61;88.30;64383.88;5072078;28;20708;-61
2023/04/17 07:27:14;;;;;;;13.40;6.00;;;;;;;13.56;90.01;64378.91;5071901;28;20192;-62
2023/04/17 07:29:40;;;;;;;10.87;6.00;;;;;;;13.63;89.73;64386.59;5053917;28;20602;-61
2023/04/17 07:32:05;;;;;;;10.33;6.07;;;;;;;13.78;90.02;64402.50;5072166;28;20326;-61
2023/04/17 07:34:33;;;;;;;10.03;5.43;;;;;;;13.78;88.84;64402.50;5072164;28;20212;-61
2023/04/17 07:36:59;;;;;;;9.03;5.70;;;;;;;13.76;88.25;64400.31;5071979;28;20185;-62
2023/04/17 07:39:27;;;;;;;11.83;6.13;;;;;;;13.86;87.10;64411.31;5071644;28;20227;-61
2023/04/17 07:41:52;;;;;;;7.97;6.27;;;;;;;13.91;87.29;64414.28;5071989;28;20685;-59
2023/04/17 07:44:17;;;;;;;11.35;5.50;;;;;;;13.95;86.42;64418.66;5071770;28;20258;-58
2023/04/17 07:46:43;;;;;;;9.90;5.63;;;;;;;13.95;87.44;64421.75;5071897;28;20193;-58
2023/04/17 07:49:09;;;;;;;14.87;10.20;;;;;;;13.98;88.30;64424.47;5053665;28;20633;-57
2023/04/17 07:51:37;;;;;;;11.52;5.45;;;;;;;13.96;86.01;64422.28;5071732;28;20265;-58
2023/04/17 07:54:02;;;;;;;10.77;6.10;;;;;;;14.07;86.13;64434.94;5071950;28;20204;-59
2023/04/17 07:56:30;;;;;;;8.00;5.20;;;;;;;13.98;85.03;64421.94;5071704;28;20276;-57
2023/04/17 07:58:57;;;;;;;8.65;5.63;;;;;;;14.07;84.94;64436.91;5071530;28;20220;-58
2023/04/17 08:01:22;;;;;;;8.40;5.60;;;;;;;14.08;85.41;64433.47;5071444;28;20193;-58
2023/04/17 08:03:50;;;;;;;8.82;5.35;;;;;;;14.20;85.95;64449.19;5071783;28;20239;-57
2023/04/17 08:06:15;;;;;;;16.20;6.60;;;;;;;14.03;86.39;64427.44;5071588;28;20271;-57
2023/04/17 08:08:46;;;;;;;7.60;5.78;;;;;;;14.08;86.22;64438.00;5071457;28;20254;-59
2023/04/17 08:11:11;;;;;;;9.77;5.80;;;;;;;14.02;86.68;64426.34;5071491;28;20209;-58
2023/04/17 08:13:37;;;;;;;10.45;5.53;;;;;;;14.05;88.03;64429.66;5071185;28;20833;-58
2023/04/17 08:16:03;;;;;;;15.85;5.95;;;;;;;14.44;99.15;64474.50;5071646;28;20185;-57
2023/04/17 08:18:31;;;;;;;9.25;6.07;;;;;;;14.39;88.74;64467.00;5071614;28;20216;-58
2023/04/17 08:20:56;;;;;;;14.30;7.38;;;;;;;14.22;91.77;64448.31;5071298;28;20185;-57
2023/04/17 08:23:22;;;;;;;17.67;10.80;;;;;;;14.06;95.27;64433.25;5071391;28;20641;-59
2023/04/17 08:25:49;;;;;;;11.32;6.47;;;;;;;14.02;93.58;64426.34;5070741;28;20558;-59
2023/04/17 08:28:14;;;;;;;28.60;13.48;;;;;;;13.86;98.41;64411.31;5071189;28;20216;-57
2023/04/17 08:30:39;;;;;;;10.70;6.97;;;;;;;13.97;99.20;64423.38;5070979;28;20704;-58
2023/04/17 08:33:05;;;;;;;9.25;6.05;;;;;;;13.87;100.00;64412.41;5071017;28;20212;-58
2023/04/17 08:35:31;;;;;;;13.90;6.72;;;;;;;14.00;100.00;64429.75;5071203;28;20583;-59
2023/04/17 08:37:58;;;;;;;12.68;6.43;;;;;;;14.06;100.00;64433.25;5070960;28;20214;-60
2023/04/17 08:40:25;;;;;;;10.02;6.50;;;;;;;14.17;100.00;64443.38;5070787;28;20724;-59
2023/04/17 08:42:52;;;;;;;9.68;6.15;;;;;;;14.21;97.62;64447.22;5070634;28;20197;-60
2023/04/17 08:45:19;;;;;;;13.50;6.28;;;;;;;14.30;98.40;64460.19;5053374;28;20185;-61
2023/04/17 08:47:45;;;;;;;13.63;6.80;;;;;;;14.45;96.78;64473.59;5070611;28;20197;-61
2023/04/17 08:50:12;;;;;;;14.93;9.35;;;;;;;14.40;98.16;64473.19;5070650;28;20266;-61
2023/04/17 08:52:41;;;;;;;11.65;6.18;;;;;;;14.47;96.81;64478.34;5052452;28;20193;-61
2023/04/17 08:55:08;;;;;;;10.20;6.17;;;;;;;14.26;95.66;64455.25;5070532;28;20177;-62
2023/04/17 08:57:34;;;;;;;12.45;7.35;;;;;;;14.26;96.19;64455.25;5070508;28;20193;-61
2023/04/17 09:00:09;;;;;;;11.23;6.50;;;;;;;14.39;97.42;64466.47;5070438;28;20246;-61
2023/04/17 09:02:51;;;;;;;10.40;6.23;;;;;;;14.20;95.16;64448.66;5070437;28;20207;-61
2023/04/17 09:05:20;;;;;;;10.77;6.43;;;;;;;14.31;95.74;64460.75;5070397;28;20674;-61
2023/04/17 09:07:46;;;;;;;10.93;5.85;;;;;;;14.06;92.79;64430.72;5070549;28;20193;-61
2023/04/17 09:10:12;;;;;;;7.88;6.32;;;;;;;14.15;94.58;64445.69;5070432;28;20208;-61
2023/04/17 09:12:40;;;;;;;7.20;5.68;;;;;;;14.01;94.04;64425.25;5069715;28;20195;-62
2023/04/17 09:15:24;;;;;;;7.82;5.93;;;;;;;14.14;89.22;64444.59;5070286;28;20181;-62
2023/04/17 09:17:50;;;;;;;9.10;5.95;;;;;;;14.00;88.25;64426.69;5070320;28;20203;-62
2023/04/17 09:20:16;;;;;;;11.73;5.73;;;;;;;14.07;88.23;64436.91;5070513;28;20184;-62
2023/04/17 09:22:42;;;;;;;9.32;6.30;;;;;;;14.25;90.81;64451.59;5070393;28;20279;-61
2023/04/17 09:25:18;;;;;;;9.27;5.80;;;;;;;13.86;87.84;64409.31;5070242;28;20686;-62
2023/04/17 09:27:45;;;;;;;8.43;4.93;;;;;;;13.89;84.83;64412.06;5070213;28;20200;-61
2023/04/17 09:30:12;;;;;;;10.60;6.55;;;;;;;13.89;88.16;64412.63;5070082;28;20703;-63
2023/04/17 09:32:39;;;;;;;12.43;5.83;;;;;;;13.61;93.07;64386.41;5070069;28;20250;-61
2023/04/17 09:35:05;;;;;;;8.97;5.03;;;;;;;13.48;96.50;64370.13;5070148;28;20204;-62
2023/04/17 09:37:53;;;;;;;8.65;6.05;;;;;;;13.37;99.14;64355.53;5070637;28;20196;-61
2023/04/17 09:40:22;;;;;;;7.93;6.23;;;;;;;13.44;99.90;64366.28;5073689;28;20188;-62
2023/04/17 09:42:56;;;;;;;10.30;5.90;;;;;;;13.56;95.98;64378.38;5073447;28;20705;-61
2023/04/17 09:45:23;;;;;;;8.13;4.90;;;;;;;13.57;93.61;64379.47;5073581;28;20286;-60
2023/04/17 09:47:54;;;;;;;9.47;6.23;;;;;;;13.66;96.76;64387.38;5073555;28;20203;-60
2023/04/17 09:50:21;;;;;;;7.63;6.25;;;;;;;13.84;98.73;64409.66;5073323;28;20694;-62
2023/04/17 09:52:50;;;;;;;7.07;5.35;;;;;;;13.96;92.57;64420.31;5073534;28;20219;-62
2023/04/17 09:55:20;;;;;;;7.80;5.77;;;;;;;13.72;90.51;64395.94;5073453;28;20261;-61
2023/04/17 09:57:57;;;;;;;9.60;5.57;;;;;;;13.64;91.88;64387.16;5073259;28;20263;-61
2023/04/17 10:00:26;;;;;;;9.40;5.00;;;;;;;13.71;91.71;64392.31;5055664;28;20168;-61
2023/04/17 10:02:53;;;;;;;12.45;6.32;;;;;;;13.74;92.21;64395.59;5073273;28;20270;-61
2023/04/17 10:05:23;;;;;;;9.03;6.07;;;;;;;13.76;91.79;64397.78;5073614;28;20242;-62
2023/04/17 10:07:49;;;;;;;9.07;5.67;;;;;;;13.64;90.16;64385.16;5073413;28;20272;-64
2023/04/17 10:10:22;;;;;;;7.50;5.50;;;;;;;13.90;89.78;64410.63;5073251;28;20726;-60
2023/04/17 10:12:50;;;;;;;10.20;4.88;;;;;;;13.99;90.55;64426.13;5073403;28;20217;-61
2023/04/17 10:15:17;;;;;;;10.00;5.70;;;;;;;14.05;85.76;64432.19;5073257;28;20238;-57
2023/04/17 10:17:43;;;;;;;6.53;4.80;;;;;;;14.16;85.79;64444.25;5073250;28;20271;-59
2023/04/17 10:20:16;;;;;;;9.80;5.37;;;;;;;14.23;84.81;64449.41;5073063;28;20188;-57
2023/04/17 10:22:53;;;;;;;10.20;5.25;;;;;;;14.13;81.29;64438.44;5073163;28;20250;-58
2023/04/17 10:25:24;;;;;;;9.23;4.87;;;;;;;14.18;81.38;64443.94;5073021;28;20188;-57
2023/04/17 10:27:58;;;;;;;6.67;4.73;;;;;;;14.17;81.48;64443.38;5072775;28;20189;-60
2023/04/17 10:30:25;;;;;;;7.85;4.88;;;;;;;14.29;79.96;64453.50;5072870;28;20240;-58
2023/04/17 10:33:18;;;;;;;10.85;4.68;;;;;;;14.51;80.62;64482.72;5073167;28;20193;-58
2023/04/17 10:35:44;;;;;;;5.30;4.40;;;;;;;14.83;76.61;64517.91;5072928;28;20201;-59
2023/04/17 10:38:10;;;;;;;9.17;5.97;;;;;;;15.02;79.16;64536.25;5073031;28;20579;-58
2023/04/17 10:40:37;;;;;;;6.33;4.80;;;;;;;15.25;79.41;64560.97;5072848;28;20188;-58
2023/04/17 10:43:22;;;;;;;24.85;15.85;;;;;;;15.14;77.62;64549.44;5072804;28;20666;-62
2023/04/17 10:45:53;;;;;;;8.25;5.47;;;;;;;15.27;74.75;64565.19;5072892;28;20189;-59
2023/04/17 10:48:28;;;;;;;5.90;5.00;;;;;;;15.13;77.22;64550.88;5072216;28;20274;-60
2023/04/17 10:50:55;;;;;;;8.85;6.43;;;;;;;15.24;77.20;64562.44;5072703;28;20219;-61
2023/04/17 10:53:36;;;;;;;9.68;7.10;;;;;;;15.14;77.33;64549.44;5073057;28;20235;-60
2023/04/17 10:56:02;;;;;;;6.85;5.97;;;;;;;15.23;75.24;64563.31;5072717;28;20642;-62
2023/04/17 10:58:29;;;;;;;11.23;8.10;;;;;;;15.14;73.93;64552.00;5072731;28;20305;-62
2023/04/17 11:00:54;;;;;;;12.40;6.70;;;;;;;15.08;74.31;64540.31;5054659;28;20193;-62
2023/04/17 11:03:22;;;;;;;12.88;6.95;;;;;;;15.13;77.13;64550.88;5072857;28;20298;-62
2023/04/17 11:05:48;;;;;;;11.80;7.38;;;;;;;14.85;76.38;64517.56;5072643;28;20216;-58
2023/04/17 11:08:15;;;;;;;10.13;7.67;;;;;;;14.68;76.40;64503.97;5072316;28;20205;-59
2023/04/17 11:10:40;;;;;;;8.55;6.40;;;;;;;14.65;76.61;64500.09;5072193;28;20690;-60
2023/04/17 11:13:06;;;;;;;11.07;7.43;;;;;;;14.69;77.19;64499.97;5054225;28;20235;-58
2023/04/17 11:15:34;;;;;;;13.02;6.47;;;;;;;14.72;78.55;64505.25;5072329;28;20276;-58
2023/04/17 11:18:00;;;;;;;9.60;6.35;;;;;;;14.73;72.64;64503.81;5072440;28;20641;-58
2023/04/17 11:20:29;;;;;;;7.22;5.82;;;;;;;14.63;72.85;64495.38;5072304;28;20264;-58
2023/04/17 11:22:59;;;;;;;7.90;6.25;;;;;;;14.71;72.72;64502.19;5072270;28;20237;-58
2023/04/17 11:25:30;;;;;;;8.15;6.97;;;;;;;14.79;72.87;64513.50;5072380;28;20204;-58
2023/04/17 11:27:58;;;;;;;12.70;7.72;;;;;;;14.75;73.82;64506.56;5072058;28;20209;-58